»·PEaware :: N3891R KSNA-KAVX

N3891R :: KSNA-KAVX

FLIGHT INFORMATION

Flight Status: Arrived
Operator: Privately registered:
United States
More flights under this callsign
Pilot: Markus B. (22479)
Aircraft: CESSNA 172 SKYHAWK
(C172)
More flights by this aircraft type
Origin: KSNA John Wayne-Orange Co
United States
Destination: KAVX Catalina
United States
More flights between these airports :: More routes between these airports
Route: +SLI V21 SXC
File this flight plan on PilotEdge
Remarks: I-7
Altitude:
(Current/Filed)
4,000ft
Speed:
(Current/Filed)
120kts
Departed: 21-Jan-19 05:21 PM
Arrived: 21-Jan-19 05:54 PM
Distance/Time
Traveled:
32nm/0:32
Distance/Time
To Go:
Arrived

Flight Plot

Page will automatically refresh every two minutes.


Map Options




Map Legend


Flown Route
Filed Route
Departure Airport
Arrival Airport
Navaid (VOR, NDB)
Fix

Horizontal Profiles

Position Reports

Time Latitude Longitude Heading Altitude Ground
Speed
21-Jan-19 17:02 33.678255 -117.862887 118 58ft 0kts
21-Jan-19 17:03 33.678255 -117.862887 118 58ft 0kts
21-Jan-19 17:04 33.678255 -117.862887 118 58ft 0kts
21-Jan-19 17:05 33.678255 -117.862887 118 58ft 0kts
21-Jan-19 17:06 33.678255 -117.862887 118 58ft 0kts
21-Jan-19 17:07 33.678255 -117.862887 118 58ft 0kts
21-Jan-19 17:08 33.678255 -117.862887 118 58ft 0kts
21-Jan-19 17:08 33.678255 -117.862887 118 58ft 0kts
21-Jan-19 17:10 33.678255 -117.862887 118 58ft 0kts
21-Jan-19 17:11 33.678255 -117.862887 118 58ft 0kts
21-Jan-19 17:12 33.678255 -117.862887 118 58ft 0kts
21-Jan-19 17:13 33.678342 -117.862905 306 59ft 1kts
21-Jan-19 17:14 33.679743 -117.863168 317 60ft 0kts
21-Jan-19 17:14 33.679775 -117.863213 305 60ft 3kts
21-Jan-19 17:15 33.679831 -117.863323 297 60ft 0kts
21-Jan-19 17:16 33.679918 -117.863555 295 60ft 0kts
21-Jan-19 17:17 33.679918 -117.863555 295 60ft 0kts
21-Jan-19 17:18 33.679918 -117.863555 295 60ft 0kts
21-Jan-19 17:19 33.679918 -117.863555 295 60ft 0kts
21-Jan-19 17:21 33.679266 -117.864712 206 60ft 43kts
21-Jan-19 17:21 33.665387 -117.878612 262 572ft 100kts
21-Jan-19 17:23 33.652669 -117.916289 242 1564ft 94kts
21-Jan-19 17:23 33.642097 -117.939808 241 2328ft 94kts
21-Jan-19 17:24 33.629908 -117.967252 241 3233ft 90kts
21-Jan-19 17:26 33.617048 -117.997375 234 4074ft 104kts
21-Jan-19 17:26 33.600654 -118.025365 235 4044ft 128kts
21-Jan-19 17:27 33.581511 -118.058868 235 4036ft 118kts
21-Jan-19 17:29 33.560044 -118.096448 236 4034ft 116kts
21-Jan-19 17:29 33.544635 -118.123350 235 4033ft 116kts
21-Jan-19 17:30 33.525891 -118.155019 235 4031ft 116kts
21-Jan-19 17:31 33.507094 -118.186787 235 4031ft 116kts
21-Jan-19 17:33 33.485185 -118.223846 235 3985ft 120kts
21-Jan-19 17:33 33.468768 -118.251658 235 3873ft 119kts
21-Jan-19 17:34 33.450109 -118.283742 236 3870ft 117kts
21-Jan-19 17:35 33.431942 -118.316140 237 3869ft 116kts
21-Jan-19 17:36 33.414423 -118.348938 238 3869ft 116kts
21-Jan-19 17:37 33.397082 -118.382167 237 3869ft 119kts
21-Jan-19 17:38 33.379723 -118.415674 271 3865ft 119kts
21-Jan-19 17:40 33.410298 -118.415789 28 3792ft 125kts
21-Jan-19 17:40 33.439918 -118.410038 7 3443ft 133kts
21-Jan-19 17:41 33.474471 -118.403994 7 3272ft 116kts
21-Jan-19 17:42 33.502664 -118.420502 324 2996ft 117kts
21-Jan-19 17:43 33.526251 -118.416514 94 2497ft 115kts
21-Jan-19 17:44 33.501840 -118.400174 193 2180ft 104kts
21-Jan-19 17:45 33.477285 -118.406916 188 2196ft 84kts
21-Jan-19 17:47 33.452307 -118.415483 226 2201ft 95kts
21-Jan-19 17:47 33.438142 -118.436213 239 2268ft 90kts
21-Jan-19 17:48 33.427800 -118.463457 244 2090ft 86kts
21-Jan-19 17:49 33.409094 -118.453233 149 1980ft 87kts
21-Jan-19 17:50 33.409839 -118.430718 53 1938ft 81kts
21-Jan-19 17:51 33.422776 -118.410367 130 2036ft 88kts
21-Jan-19 17:52 33.408005 -118.410754 235 1658ft 81kts
21-Jan-19 17:53 33.403343 -118.418591 236 1606ft 0kts
21-Jan-19 17:55 33.402717 -118.419622 236 1606ft 0kts
21-Jan-19 17:55 33.402362 -118.419508 62 1606ft 0kts
21-Jan-19 17:56 33.402362 -118.419508 62 1606ft 0kts
21-Jan-19 17:57 33.402362 -118.419508 62 1606ft 0kts
21-Jan-19 17:59 33.402362 -118.419508 62 1606ft 0kts
21-Jan-19 17:59 33.402362 -118.419508 63 1606ft 0kts
21-Jan-19 18:00 33.402362 -118.419508 63 1606ft 0kts
21-Jan-19 18:01 33.402362 -118.419508 63 1606ft 0kts
21-Jan-19 18:02 33.402362 -118.419508 63 1606ft 0kts
21-Jan-19 18:03 33.402362 -118.419508 63 1606ft 0kts
21-Jan-19 18:04 33.402362 -118.419508 63 1606ft 0kts
21-Jan-19 18:05 33.402362 -118.419508 63 1606ft 0kts
21-Jan-19 18:06 33.402362 -118.419508 63 1606ft 0kts
21-Jan-19 18:07 33.402362 -118.419508 63 1606ft 0kts

Navigation Log

Ident Type
Flight plan parsing failed, navigation log unavailable